createdAt,value
2022-12-27T00:02:00.121Z,0.45
2022-12-27T00:04:27.804Z,0.55
2022-12-27T00:06:54.624Z,0.50
2022-12-27T00:09:21.480Z,1.88
2022-12-27T00:11:48.589Z,0.65
2022-12-27T00:14:15.647Z,0.82
2022-12-27T00:16:42.507Z,0.40
2022-12-27T00:19:09.798Z,0.65
2022-12-27T00:21:36.953Z,0.40
2022-12-27T00:24:03.959Z,0.50
2022-12-27T00:26:32.958Z,0.82
2022-12-27T00:29:00.337Z,0.30
2022-12-27T00:31:29.828Z,1.95
2022-12-27T00:34:01.657Z,1.27
2022-12-27T00:36:29.954Z,0.50
2022-12-27T00:38:57.949Z,0.68
2022-12-27T00:41:25.097Z,0.45
2022-12-27T00:43:52.012Z,0.60
2022-12-27T00:46:19.289Z,1.45
2022-12-27T00:48:46.391Z,0.40
2022-12-27T00:51:19.436Z,0.57
2022-12-27T00:53:47.024Z,1.65
2022-12-27T00:56:28.446Z,2.15
2022-12-27T00:58:57.214Z,0.43
2022-12-27T01:01:25.471Z,1.10
2022-12-27T01:03:53.067Z,0.70
2022-12-27T01:06:23.282Z,1.58
2022-12-27T01:08:50.638Z,0.70
2022-12-27T01:11:18.407Z,1.85
2022-12-27T01:13:45.909Z,1.10
2022-12-27T01:16:19.386Z,0.50
2022-12-27T01:18:46.919Z,2.15
2022-12-27T01:21:15.761Z,1.00
2022-12-27T01:23:43.176Z,1.92
2022-12-27T01:26:19.176Z,0.73
2022-12-27T01:28:46.787Z,0.68
2022-12-27T01:31:19.330Z,1.40
2022-12-27T01:33:46.450Z,2.85
2022-12-27T01:36:14.922Z,1.75
2022-12-27T01:38:44.927Z,1.98
2022-12-27T01:41:42.056Z,3.43
2022-12-27T01:44:39.640Z,1.90
2022-12-27T01:47:12.536Z,2.30
2022-12-27T01:49:40.863Z,1.50
2022-12-27T01:52:09.899Z,0.85
2022-12-27T01:54:36.905Z,2.65
2022-12-27T01:57:04.609Z,0.63
2022-12-27T01:59:32.211Z,2.17
2022-12-27T02:01:59.485Z,0.40
2022-12-27T02:04:29.150Z,1.55
2022-12-27T02:06:56.322Z,2.30
2022-12-27T02:09:29.339Z,0.95
2022-12-27T02:11:57.231Z,2.15
2022-12-27T02:14:32.687Z,1.00
2022-12-27T02:17:01.464Z,0.85
2022-12-27T02:20:08.760Z,0.50
2022-12-27T02:23:28.157Z,5.38
2022-12-27T02:26:31.822Z,1.17
2022-12-27T02:29:36.916Z,3.38
2022-12-27T02:32:08.678Z,1.77
2022-12-27T02:34:43.308Z,1.67
2022-12-27T02:37:13.008Z,0.60
2022-12-27T02:39:43.777Z,1.20
2022-12-27T02:45:18.725Z,0.90
2022-12-27T02:48:04.555Z,1.45
2022-12-27T02:51:12.778Z,0.55
2022-12-27T02:53:57.635Z,0.30
2022-12-27T02:57:10.088Z,2.05
2022-12-27T03:00:23.641Z,1.30
2022-12-27T03:03:21.057Z,0.75
2022-12-27T03:06:19.155Z,0.40
2022-12-27T03:09:35.337Z,1.00
2022-12-27T03:12:25.540Z,0.63
2022-12-27T03:15:17.309Z,0.47
2022-12-27T03:17:56.655Z,0.40
2022-12-27T03:20:42.064Z,1.13
2022-12-27T03:23:28.236Z,3.53
2022-12-27T03:25:56.869Z,1.10
2022-12-27T03:28:45.988Z,1.80
2022-12-27T03:31:35.846Z,2.08
2022-12-27T03:34:26.219Z,0.40
2022-12-27T03:37:13.845Z,0.47
2022-12-27T03:39:46.555Z,0.77
2022-12-27T03:42:39.110Z,0.70
2022-12-27T03:45:06.941Z,0.55
2022-12-27T03:47:44.765Z,0.65
2022-12-27T03:50:22.086Z,1.63
2022-12-27T03:52:58.398Z,0.40
2022-12-27T03:55:31.542Z,0.70
2022-12-27T03:58:00.123Z,0.50
2022-12-27T04:00:26.967Z,0.38
2022-12-27T04:02:53.925Z,1.65
2022-12-27T04:05:20.837Z,2.50
2022-12-27T04:08:06.128Z,2.17
2022-12-27T04:10:51.672Z,0.38
2022-12-27T04:13:37.225Z,0.52
2022-12-27T04:16:22.535Z,0.60
2022-12-27T04:19:07.835Z,2.83
2022-12-27T04:21:53.100Z,0.47
2022-12-27T04:24:38.670Z,0.47
2022-12-27T04:27:24.296Z,0.22
2022-12-27T04:30:09.650Z,0.45
2022-12-27T04:32:55.293Z,2.15
2022-12-27T04:35:22.153Z,0.30
2022-12-27T04:37:48.875Z,0.30
2022-12-27T04:40:34.284Z,2.10
2022-12-27T04:43:20.117Z,0.47
2022-12-27T04:46:05.237Z,0.40
2022-12-27T04:48:50.640Z,0.93
2022-12-27T04:51:36.359Z,0.40
2022-12-27T04:54:21.926Z,1.45
2022-12-27T04:56:48.693Z,1.17
2022-12-27T04:59:33.949Z,1.45
2022-12-27T05:02:04.029Z,1.85
2022-12-27T05:04:36.028Z,1.77
2022-12-27T05:07:23.280Z,0.40
2022-12-27T05:10:09.020Z,0.38
2022-12-27T05:12:54.225Z,1.27
2022-12-27T05:15:21.023Z,2.55
2022-12-27T05:17:47.996Z,0.20
2022-12-27T05:20:14.804Z,2.85
2022-12-27T05:23:00.145Z,0.98
2022-12-27T05:25:38.424Z,3.20
2022-12-27T05:28:07.015Z,0.55
2022-12-27T05:30:35.339Z,2.15
2022-12-27T05:33:03.013Z,0.73
2022-12-27T05:35:29.957Z,2.35
2022-12-27T05:37:57.034Z,1.83
2022-12-27T05:40:24.631Z,2.83
2022-12-27T05:42:51.736Z,2.55
2022-12-27T05:45:19.059Z,1.20
2022-12-27T05:47:46.041Z,3.13
2022-12-27T05:50:12.860Z,1.10
2022-12-27T05:52:41.279Z,3.38
2022-12-27T05:55:08.822Z,2.60
2022-12-27T05:57:35.598Z,2.38
2022-12-27T06:00:03.965Z,0.65
2022-12-27T06:02:39.808Z,0.55
2022-12-27T06:05:07.020Z,0.52
2022-12-27T06:07:35.866Z,1.75
2022-12-27T06:10:04.412Z,4.03
2022-12-27T06:12:31.351Z,2.30
2022-12-27T06:14:58.117Z,3.05
2022-12-27T06:17:25.076Z,0.63
2022-12-27T06:19:56.804Z,1.08
2022-12-27T06:22:24.603Z,1.50
2022-12-27T06:24:51.390Z,3.13
2022-12-27T06:27:18.091Z,2.00
2022-12-27T06:29:44.859Z,1.25
2022-12-27T06:32:11.748Z,1.73
2022-12-27T06:34:38.502Z,1.33
2022-12-27T06:37:05.252Z,1.45
2022-12-27T06:39:31.946Z,1.83
2022-12-27T06:41:58.676Z,1.20
2022-12-27T06:44:26.204Z,3.70
2022-12-27T06:46:52.938Z,2.38
2022-12-27T06:49:19.772Z,1.73
2022-12-27T06:51:52.589Z,6.07
2022-12-27T06:54:22.703Z,3.17
2022-12-27T06:56:49.560Z,1.33
2022-12-27T06:59:16.285Z,5.75
2022-12-27T07:01:43.337Z,3.90
2022-12-27T07:04:10.558Z,2.03
2022-12-27T07:06:38.115Z,4.03
2022-12-27T07:09:04.960Z,4.88
2022-12-27T07:11:36.789Z,3.25
2022-12-27T07:14:03.879Z,3.50
2022-12-27T07:16:31.233Z,2.63
2022-12-27T07:18:59.226Z,1.70
2022-12-27T07:21:27.754Z,2.13
2022-12-27T07:23:55.158Z,1.70
2022-12-27T07:26:26.923Z,3.05
2022-12-27T07:28:55.093Z,1.10
2022-12-27T07:31:24.106Z,0.55
2022-12-27T07:33:51.826Z,1.70
2022-12-27T07:36:21.673Z,3.25
2022-12-27T07:38:48.577Z,3.35
2022-12-27T07:41:15.954Z,4.72
2022-12-27T07:43:44.391Z,2.22
2022-12-27T07:46:19.940Z,0.90
2022-12-27T07:48:47.466Z,2.08
2022-12-27T07:51:16.072Z,5.40
2022-12-27T07:53:43.298Z,1.65
2022-12-27T07:56:12.512Z,3.33
2022-12-27T07:58:44.570Z,4.00
2022-12-27T08:01:13.073Z,3.65
2022-12-27T08:03:40.466Z,7.32
2022-12-27T08:06:08.548Z,3.40
2022-12-27T08:08:40.501Z,1.70
2022-12-27T08:11:07.605Z,1.08
2022-12-27T08:13:34.793Z,1.73
2022-12-27T08:16:01.967Z,4.18
2022-12-27T08:18:29.748Z,3.53
2022-12-27T08:20:56.545Z,2.50
2022-12-27T08:23:23.262Z,2.60
2022-12-27T08:25:50.061Z,2.05
2022-12-27T08:28:17.901Z,0.75
2022-12-27T08:30:47.189Z,2.97
2022-12-27T08:33:15.310Z,3.63
2022-12-27T08:35:54.356Z,0.80
2022-12-27T08:38:21.678Z,1.10
2022-12-27T08:40:48.435Z,1.67
2022-12-27T08:43:15.346Z,1.23
2022-12-27T08:45:42.243Z,0.57
2022-12-27T08:48:09.326Z,2.42
2022-12-27T08:50:36.229Z,4.32
2022-12-27T08:53:04.264Z,2.90
2022-12-27T08:55:31.332Z,4.28
2022-12-27T08:57:59.530Z,3.97
2022-12-27T09:00:27.100Z,3.90
2022-12-27T09:02:54.292Z,6.18
2022-12-27T09:05:22.162Z,3.60
2022-12-27T09:07:49.333Z,7.68
2022-12-27T09:10:16.911Z,2.88
2022-12-27T09:12:43.946Z,1.75
2022-12-27T09:15:10.948Z,6.20
2022-12-27T09:17:37.792Z,2.67
2022-12-27T09:20:05.760Z,4.45
2022-12-27T09:22:32.564Z,5.22
2022-12-27T09:24:59.385Z,4.28
2022-12-27T09:27:26.239Z,5.22
2022-12-27T09:29:53.029Z,5.57
2022-12-27T09:32:19.830Z,3.83
2022-12-27T09:34:46.660Z,3.38
2022-12-27T09:37:13.911Z,2.42
2022-12-27T09:39:40.663Z,2.60
2022-12-27T09:42:57.737Z,2.55
2022-12-27T09:45:44.122Z,3.13
2022-12-27T09:48:17.428Z,1.33
2022-12-27T09:50:55.590Z,2.83
2022-12-27T09:53:27.067Z,4.85
2022-12-27T09:55:58.037Z,2.38
2022-12-27T10:00:54.624Z,2.45
2022-12-27T10:03:25.992Z,2.35
2022-12-27T10:06:07.019Z,8.98
2022-12-27T10:08:50.095Z,3.97
2022-12-27T10:11:36.118Z,6.60
2022-12-27T10:14:07.160Z,3.65
2022-12-27T10:19:32.435Z,1.77
2022-12-27T10:21:59.133Z,6.43
2022-12-27T10:24:39.325Z,2.97
2022-12-27T10:27:14.593Z,3.33
2022-12-27T10:29:42.327Z,4.45
2022-12-27T10:32:14.304Z,2.97
2022-12-27T10:34:41.252Z,3.33
2022-12-27T10:37:14.028Z,5.50
2022-12-27T10:39:40.858Z,4.40
2022-12-27T10:42:29.929Z,6.85
2022-12-27T10:45:28.664Z,5.40
2022-12-27T10:47:59.819Z,4.22
2022-12-27T10:50:28.421Z,3.88
2022-12-27T10:52:57.656Z,3.05
2022-12-27T10:55:38.994Z,7.10
2022-12-27T10:58:35.611Z,8.32
2022-12-27T11:01:02.409Z,10.52
2022-12-27T11:03:31.054Z,12.18
2022-12-27T11:06:06.355Z,9.40
2022-12-27T11:08:33.488Z,3.80
2022-12-27T11:11:19.576Z,11.48
2022-12-27T11:13:47.893Z,10.05
2022-12-27T11:16:23.715Z,8.90
2022-12-27T11:18:52.770Z,6.25
2022-12-27T11:21:25.816Z,7.78
2022-12-27T11:24:04.001Z,9.57
2022-12-27T11:26:43.184Z,8.27
2022-12-27T11:29:17.125Z,5.22
2022-12-27T11:31:48.409Z,9.65
2022-12-27T11:34:16.191Z,3.20
2022-12-27T11:36:46.189Z,5.25
2022-12-27T11:39:37.991Z,7.13
2022-12-27T11:42:31.710Z,4.47
2022-12-27T11:45:11.453Z,6.00
2022-12-27T11:47:47.286Z,5.40
2022-12-27T11:50:35.995Z,4.82
2022-12-27T11:53:28.108Z,1.98
2022-12-27T11:56:13.160Z,2.88
2022-12-27T11:59:00.483Z,5.72
2022-12-27T12:01:30.277Z,3.97
2022-12-27T12:04:20.885Z,3.30
2022-12-27T12:07:25.616Z,2.67
2022-12-27T12:10:11.134Z,4.90
2022-12-27T12:13:06.050Z,10.52
2022-12-27T12:16:06.177Z,10.75
2022-12-27T12:18:47.879Z,10.35
2022-12-27T12:21:41.383Z,5.18
2022-12-27T12:24:14.262Z,10.65
2022-12-27T12:27:18.384Z,6.20
2022-12-27T12:30:04.271Z,9.10
2022-12-27T12:32:50.356Z,7.88
2022-12-27T12:35:39.021Z,4.25
2022-12-27T12:38:12.284Z,8.93
2022-12-27T12:40:52.922Z,6.65
2022-12-27T12:43:44.341Z,3.63
2022-12-27T12:46:24.658Z,7.72
2022-12-27T12:49:09.735Z,4.32
2022-12-27T12:51:58.440Z,2.97
2022-12-27T12:54:43.339Z,7.05
2022-12-27T12:57:25.396Z,6.10
2022-12-27T13:00:10.516Z,4.85
2022-12-27T13:03:11.388Z,6.20
2022-12-27T13:05:44.333Z,5.15
2022-12-27T13:08:11.145Z,3.03
2022-12-27T13:11:08.708Z,5.90
2022-12-27T13:13:49.499Z,10.35
2022-12-27T13:16:29.387Z,3.92
2022-12-27T13:19:16.856Z,8.63
2022-12-27T13:22:11.414Z,3.65
2022-12-27T13:24:57.144Z,6.15
2022-12-27T13:27:53.127Z,5.00
2022-12-27T13:30:21.296Z,5.25
2022-12-27T13:33:12.637Z,5.07
2022-12-27T13:36:15.265Z,5.38
2022-12-27T13:39:07.355Z,3.78
2022-12-27T13:42:02.299Z,7.47
2022-12-27T13:44:53.977Z,4.00
2022-12-27T13:47:39.729Z,6.47
2022-12-27T13:50:41.899Z,5.22
2022-12-27T13:53:34.194Z,9.90
2022-12-27T13:56:52.056Z,9.48
2022-12-27T13:59:24.783Z,5.88
2022-12-27T14:02:13.759Z,7.22
2022-12-27T14:05:02.505Z,9.73
2022-12-27T14:07:32.035Z,3.85
2022-12-27T14:10:02.264Z,5.07
2022-12-27T14:12:51.765Z,8.90
2022-12-27T14:15:22.245Z,6.35
2022-12-27T14:18:17.007Z,9.35
2022-12-27T14:21:11.783Z,4.95
2022-12-27T14:24:07.462Z,3.33
2022-12-27T14:26:46.869Z,4.55
2022-12-27T14:29:16.502Z,4.97
2022-12-27T14:32:12.596Z,3.78
2022-12-27T14:35:13.586Z,2.40
2022-12-27T14:38:01.921Z,2.83
2022-12-27T14:40:34.825Z,5.57
2022-12-27T14:43:20.283Z,2.55
2022-12-27T14:45:57.018Z,4.57
2022-12-27T14:48:33.646Z,3.05
2022-12-27T14:51:58.341Z,2.72
2022-12-27T14:54:24.369Z,2.83
2022-12-27T14:57:03.636Z,1.38
2022-12-27T14:59:53.575Z,3.20
2022-12-27T15:02:52.239Z,3.05
2022-12-27T15:05:46.304Z,0.70
2022-12-27T15:08:51.136Z,2.92
2022-12-27T15:11:22.033Z,2.40
2022-12-27T15:16:40.430Z,3.83
2022-12-27T15:19:16.202Z,1.27
2022-12-27T15:21:49.125Z,5.05
2022-12-27T15:24:34.824Z,4.03
2022-12-27T15:27:25.680Z,2.00
2022-12-27T15:30:15.733Z,2.00
2022-12-27T15:33:07.301Z,1.85
2022-12-27T15:35:40.169Z,2.53
2022-12-27T15:38:18.759Z,1.63
2022-12-27T15:41:03.809Z,1.33
2022-12-27T15:43:53.777Z,4.07
2022-12-27T15:47:04.141Z,4.57
2022-12-27T15:49:50.880Z,6.05
2022-12-27T15:52:23.802Z,5.13
2022-12-27T15:55:03.135Z,4.70
2022-12-27T15:57:43.904Z,4.05
2022-12-27T16:00:16.382Z,2.50
2022-12-27T16:02:49.275Z,4.18
2022-12-27T16:05:23.269Z,3.60
2022-12-27T16:07:52.664Z,3.13
2022-12-27T16:10:35.569Z,4.95
2022-12-27T16:13:11.910Z,2.80
2022-12-27T16:15:45.358Z,2.65
2022-12-27T16:18:50.622Z,36.00
2022-12-27T16:21:24.084Z,3.78
2022-12-27T16:23:55.318Z,2.50
2022-12-27T16:26:29.979Z,5.20
2022-12-27T16:29:00.735Z,7.00
2022-12-27T16:31:45.187Z,2.42
2022-12-27T16:34:28.585Z,3.53
2022-12-27T16:36:58.074Z,1.17
2022-12-27T16:39:34.956Z,2.00
2022-12-27T16:42:06.966Z,5.38
2022-12-27T16:44:53.998Z,27.90
2022-12-27T16:47:48.587Z,2.05
2022-12-27T16:50:57.545Z,9.65
2022-12-27T16:53:48.677Z,22.58
2022-12-27T16:58:49.743Z,54.47
2022-12-27T17:01:25.825Z,2.70
2022-12-27T17:03:57.101Z,1.85
2022-12-27T17:06:33.037Z,4.78
2022-12-27T17:09:11.551Z,24.50
2022-12-27T17:12:04.343Z,5.53
2022-12-27T17:14:36.419Z,4.63
2022-12-27T17:17:23.677Z,1.75
2022-12-27T17:20:00.998Z,2.20
2022-12-27T17:22:34.218Z,4.10
2022-12-27T17:25:02.633Z,4.60
2022-12-27T17:27:38.169Z,2.78
2022-12-27T17:30:19.967Z,3.45
2022-12-27T17:33:08.280Z,4.80
2022-12-27T17:35:47.343Z,3.28
2022-12-27T17:38:51.194Z,9.98
2022-12-27T17:42:13.647Z,9.68
2022-12-27T17:44:49.188Z,5.70
2022-12-27T17:47:33.138Z,7.85
2022-12-27T17:50:05.916Z,5.25
2022-12-27T17:52:51.174Z,5.97
2022-12-27T17:55:46.765Z,4.30
2022-12-27T17:58:18.705Z,5.65
2022-12-27T18:00:57.995Z,5.65
2022-12-27T18:03:28.900Z,5.10
2022-12-27T18:08:30.328Z,3.20
2022-12-27T18:10:58.380Z,4.60
2022-12-27T18:13:26.832Z,5.03
2022-12-27T18:15:53.923Z,4.90
2022-12-27T18:18:32.673Z,2.08
2022-12-27T18:21:02.406Z,5.38
2022-12-27T18:23:29.367Z,11.88
2022-12-27T18:26:13.131Z,4.35
2022-12-27T18:28:41.502Z,3.05
2022-12-27T18:31:14.367Z,8.32
2022-12-27T18:34:03.421Z,4.15
2022-12-27T18:36:38.252Z,2.65
2022-12-27T18:39:20.395Z,4.05
2022-12-27T18:41:51.378Z,2.42
2022-12-27T18:46:56.520Z,9.05
2022-12-27T18:49:31.416Z,15.90
2022-12-27T18:51:58.409Z,8.73
2022-12-27T18:54:27.921Z,8.35
2022-12-27T18:57:00.198Z,4.80
2022-12-27T18:59:28.942Z,5.13
2022-12-27T19:02:01.586Z,5.05
2022-12-27T19:04:29.515Z,6.55
2022-12-27T19:07:14.972Z,4.50
2022-12-27T19:09:48.979Z,6.10
2022-12-27T19:12:23.142Z,5.82
2022-12-27T19:14:50.262Z,15.13
2022-12-27T19:17:23.102Z,12.02
2022-12-27T19:19:52.911Z,5.05
2022-12-27T19:22:35.131Z,9.73
2022-12-27T19:25:25.369Z,9.27
2022-12-27T19:28:10.501Z,15.80
2022-12-27T19:30:46.916Z,4.22
2022-12-27T19:33:26.550Z,4.10
2022-12-27T19:35:53.989Z,22.17
2022-12-27T19:38:23.605Z,9.48
2022-12-27T19:40:55.487Z,22.98
2022-12-27T19:43:27.379Z,86.60
2022-12-27T19:45:54.288Z,117.43
2022-12-27T19:48:21.239Z,12.32
2022-12-27T19:50:53.007Z,13.15
2022-12-27T19:53:31.471Z,15.55
2022-12-27T19:55:58.453Z,15.40
2022-12-27T19:58:26.778Z,9.57
2022-12-27T20:00:54.080Z,78.20
2022-12-27T20:03:20.971Z,16.70
2022-12-27T20:06:13.290Z,4.43
2022-12-27T20:08:38.171Z,16.23
2022-12-27T20:11:07.007Z,7.15
2022-12-27T20:13:34.104Z,4.45
2022-12-27T20:16:01.173Z,10.25
2022-12-27T20:18:27.937Z,17.95
2022-12-27T20:20:54.905Z,10.60
2022-12-27T20:23:21.848Z,39.83
2022-12-27T20:25:49.717Z,13.10
2022-12-27T20:28:17.927Z,11.63
2022-12-27T20:30:45.911Z,40.35
2022-12-27T20:33:13.002Z,11.05
2022-12-27T20:35:39.999Z,3.90
2022-12-27T20:38:07.397Z,5.47
2022-12-27T20:40:34.240Z,12.40
2022-12-27T20:43:01.007Z,12.90
2022-12-27T20:45:27.953Z,7.93
2022-12-27T20:47:54.843Z,12.20
2022-12-27T20:50:21.722Z,5.63
2022-12-27T20:52:48.559Z,11.55
2022-12-27T20:55:15.363Z,13.00
2022-12-27T20:57:42.579Z,4.75
2022-12-27T21:00:10.681Z,15.02
2022-12-27T21:02:39.932Z,7.30
2022-12-27T21:05:07.843Z,8.18
2022-12-27T21:07:35.116Z,11.05
2022-12-27T21:10:02.358Z,20.92
2022-12-27T21:12:29.074Z,8.63
2022-12-27T21:14:55.835Z,11.68
2022-12-27T21:17:22.693Z,37.22
2022-12-27T21:19:49.550Z,41.72
2022-12-27T21:22:16.584Z,7.60
2022-12-27T21:24:43.332Z,6.10
2022-12-27T21:27:10.542Z,4.50
2022-12-27T21:29:37.352Z,11.45
2022-12-27T21:32:04.335Z,4.00
2022-12-27T21:34:31.270Z,5.80
2022-12-27T21:36:58.202Z,4.95
2022-12-27T21:39:24.950Z,13.43
2022-12-27T21:41:52.050Z,21.60
2022-12-27T21:44:18.889Z,32.33
2022-12-27T21:46:45.650Z,57.05
2022-12-27T21:49:15.416Z,13.75
2022-12-27T21:51:43.607Z,50.33
2022-12-27T21:54:11.433Z,134.40
2022-12-27T21:56:39.169Z,45.53
2022-12-27T21:59:11.037Z,56.72
2022-12-27T22:01:51.333Z,23.60
2022-12-27T22:04:20.794Z,82.63
2022-12-27T22:06:48.141Z,56.75
2022-12-27T22:09:15.743Z,53.22
2022-12-27T22:11:42.591Z,79.72
2022-12-27T22:14:09.442Z,39.25
2022-12-27T22:16:38.495Z,65.78
2022-12-27T22:19:09.846Z,13.00
2022-12-27T22:21:37.771Z,57.15
2022-12-27T22:24:05.622Z,72.38
2022-12-27T22:26:34.721Z,9.90
2022-12-27T22:29:02.283Z,7.85
2022-12-27T22:31:31.003Z,54.72
2022-12-27T22:33:57.842Z,47.67
2022-12-27T22:36:28.214Z,114.57
2022-12-27T22:38:56.518Z,103.18
2022-12-27T22:41:28.668Z,70.85
2022-12-27T22:43:59.344Z,121.60
2022-12-27T22:46:27.248Z,66.22
2022-12-27T22:48:56.332Z,82.07
2022-12-27T22:51:28.540Z,57.72
2022-12-27T22:53:56.325Z,157.80
2022-12-27T22:56:25.480Z,13.45
2022-12-27T22:58:52.534Z,10.60
2022-12-27T23:01:22.962Z,18.65
2022-12-27T23:03:49.928Z,43.97
2022-12-27T23:06:17.458Z,95.18
2022-12-27T23:08:44.794Z,37.63
2022-12-27T23:11:15.474Z,75.57
2022-12-27T23:13:42.401Z,42.85
2022-12-27T23:16:09.535Z,53.03
2022-12-27T23:18:36.775Z,43.70
2022-12-27T23:21:20.850Z,28.55
2022-12-27T23:23:52.394Z,17.45
2022-12-27T23:26:21.678Z,8.55
2022-12-27T23:28:49.441Z,22.65
2022-12-27T23:31:16.954Z,44.65
2022-12-27T23:33:44.727Z,49.33
2022-12-27T23:36:12.453Z,48.28
2022-12-27T23:38:41.838Z,15.00
2022-12-27T23:41:11.037Z,19.17
2022-12-27T23:43:52.089Z,7.97
2022-12-27T23:46:27.735Z,8.60
2022-12-27T23:48:55.319Z,7.22
2022-12-27T23:51:22.705Z,6.43
2022-12-27T23:53:49.966Z,4.38
2022-12-27T23:56:28.723Z,8.35
2022-12-27T23:58:57.625Z,8.88
